Time;durP1;ratioP1;P1;durP2;ratioP2;P2;SDS_P1;SDS_P2;PMS_P1;PMS_P2;Temp;Humidity;BMP_temperature;BMP_pressure;BME280_temperature;BME280_humidity;BME280_pressure;Samples;Min_cycle;Max_cycle;Signal;HPM_P1;HPM_P2
2022/12/14 00:00:53;;;;;;;8.60;4.63;;;;;;;;;;5081533;28;20025;-73
2022/12/14 00:03:19;;;;;;;6.22;4.03;;;;;;;;;;5081496;28;20078;-73
2022/12/14 00:05:45;;;;;;;7.53;4.28;;;;;;;;;;5081314;28;20055;-73
2022/12/14 00:08:12;;;;;;;6.53;4.38;;;;;;;;;;5081560;28;20028;-73
2022/12/14 00:10:39;;;;;;;6.28;4.18;;;;;;;;;;5081237;28;20325;-73
2022/12/14 00:13:06;;;;;;;6.30;4.00;;;;;;;;;;5081303;28;20074;-73
2022/12/14 00:15:31;;;;;;;5.45;3.78;;;;;;;;;;5081407;28;20039;-73
2022/12/14 00:17:58;;;;;;;6.53;4.03;;;;;;;;;;5080371;28;20036;-73
2022/12/14 00:20:24;;;;;;;6.38;4.05;;;;;;;;;;5080186;28;20032;-73
2022/12/14 00:22:49;;;;;;;6.90;3.85;;;;;;;;;;5081255;28;20063;-74
2022/12/14 00:25:15;;;;;;;5.32;3.83;;;;;;;;;;5079927;28;20032;-74
2022/12/14 00:27:44;;;;;;;5.82;3.88;;;;;;;;;;5079704;28;20417;-74
2022/12/14 00:30:15;;;;;;;5.13;3.70;;;;;;;;;;5079751;28;20056;-74
2022/12/14 00:32:40;;;;;;;;;;;;;;;;;;5080067;28;20035;-74
2022/12/14 00:35:11;;;;;;;4.50;3.30;;;;;;;;;;5079473;28;19904;-74
2022/12/14 00:37:36;;;;;;;5.60;3.50;;;;;;;;;;5079664;28;20041;-73
2022/12/14 00:40:04;;;;;;;5.68;3.40;;;;;;;;;;5079260;28;20104;-74
2022/12/14 00:42:29;;;;;;;5.03;3.50;;;;;;;;;;5079199;28;20067;-74
2022/12/14 00:44:54;;;;;;;5.03;3.55;;;;;;;;;;5080103;28;20232;-74
2022/12/14 00:47:20;;;;;;;5.07;3.45;;;;;;;;;;5080167;28;20020;-73
2022/12/14 00:49:45;;;;;;;5.55;3.25;;;;;;;;;;5079747;28;20017;-74
2022/12/14 00:52:11;;;;;;;5.72;3.50;;;;;;;;;;5079565;28;20432;-74
2022/12/14 00:54:36;;;;;;;5.07;3.30;;;;;;;;;;5079425;28;20032;-74
2022/12/14 00:57:01;;;;;;;4.85;3.50;;;;;;;;;;5079412;28;20171;-74
2022/12/14 00:59:27;;;;;;;5.18;3.40;;;;;;;;;;5079066;28;20035;-74
2022/12/14 01:01:52;;;;;;;4.40;2.88;;;;;;;;;;5081981;28;20087;-73
2022/12/14 01:04:18;;;;;;;4.32;3.03;;;;;;;;;;5083371;28;20028;-74
2022/12/14 01:06:50;;;;;;;5.07;3.15;;;;;;;;;;5084249;28;20031;-74
2022/12/14 01:09:18;;;;;;;4.93;3.15;;;;;;;;;;5084667;28;20036;-74
2022/12/14 01:11:43;;;;;;;4.57;3.05;;;;;;;;;;5084328;28;20055;-74
2022/12/14 01:14:10;;;;;;;3.90;2.80;;;;;;;;;;5084213;28;20028;-73
2022/12/14 01:16:36;;;;;;;5.20;2.60;;;;;;;;;;5084317;28;20056;-74
2022/12/14 01:19:01;;;;;;;2.88;2.13;;;;;;;;;;5084005;28;20036;-73
2022/12/14 01:21:27;;;;;;;3.50;2.00;;;;;;;;;;5083874;28;20028;-74
2022/12/14 01:23:59;;;;;;;4.22;2.08;;;;;;;;;;5083497;28;20347;-73
2022/12/14 01:26:25;;;;;;;3.50;2.00;;;;;;;;;;5083735;28;20031;-73
2022/12/14 01:28:56;;;;;;;2.75;2.00;;;;;;;;;;5083029;28;20042;-73
2022/12/14 01:31:23;;;;;;;4.03;2.30;;;;;;;;;;5084118;28;20083;-74
2022/12/14 01:33:49;;;;;;;2.85;1.83;;;;;;;;;;5084142;28;20054;-74
2022/12/14 01:36:17;;;;;;;4.38;2.00;;;;;;;;;;5083299;28;20049;-74
2022/12/14 01:38:43;;;;;;;4.53;2.00;;;;;;;;;;5082787;28;20020;-73
2022/12/14 01:41:20;;;;;;;2.83;1.98;;;;;;;;;;5082487;28;20024;-74
2022/12/14 01:43:55;;;;;;;3.00;1.50;;;;;;;;;;5082842;28;20031;-73
2022/12/14 01:47:16;;;;;;;2.80;1.40;;;;;;;;;;5082505;28;20063;-73
2022/12/14 01:50:06;;;;;;;2.17;1.40;;;;;;;;;;5077057;28;20072;-73
2022/12/14 01:52:39;;;;;;;4.00;1.55;;;;;;;;;;5081805;28;20193;-73
2022/12/14 01:55:25;;;;;;;3.28;1.52;;;;;;;;;;5082109;28;20331;-73
2022/12/14 01:58:01;;;;;;;2.67;1.23;;;;;;;;;;5083640;28;20070;-73
2022/12/14 02:00:27;;;;;;;2.67;1.50;;;;;;;;;;5083485;28;20032;-73
2022/12/14 02:03:13;;;;;;;2.45;1.65;;;;;;;;;;5082610;28;20308;-74
2022/12/14 02:05:47;;;;;;;2.97;1.70;;;;;;;;;;5081761;28;20353;-73
2022/12/14 02:08:14;;;;;;;2.70;1.50;;;;;;;;;;5082500;28;20028;-73
2022/12/14 02:10:40;;;;;;;2.67;1.65;;;;;;;;;;5082815;28;20025;-74
2022/12/14 02:13:13;;;;;;;2.25;1.55;;;;;;;;;;5081393;28;20059;-73
2022/12/14 02:15:40;;;;;;;3.38;1.92;;;;;;;;;;5080564;28;20048;-73
2022/12/14 02:18:08;;;;;;;3.83;2.00;;;;;;;;;;5082386;28;20087;-73
2022/12/14 02:20:53;;;;;;;3.10;2.00;;;;;;;;;;5083233;28;20023;-74
2022/12/14 02:23:43;;;;;;;3.20;2.13;;;;;;;;;;5083118;28;20088;-75
2022/12/14 02:26:29;;;;;;;3.63;2.00;;;;;;;;;;5083129;28;20028;-74
2022/12/14 02:29:16;;;;;;;3.20;2.20;;;;;;;;;;5082981;28;20044;-73
2022/12/14 02:32:00;;;;;;;3.28;2.10;;;;;;;;;;5082840;28;20100;-74
2022/12/14 02:34:44;;;;;;;5.13;2.30;;;;;;;;;;5082963;28;20043;-75
2022/12/14 02:37:37;;;;;;;3.65;2.10;;;;;;;;;;5082268;28;20228;-75
2022/12/14 02:40:03;;;;;;;3.20;1.80;;;;;;;;;;5081609;28;20049;-74
2022/12/14 02:42:42;;;;;;;3.03;1.83;;;;;;;;;;5081082;28;20032;-74
2022/12/14 02:45:16;;;;;;;3.90;1.90;;;;;;;;;;5080793;28;20127;-74
2022/12/14 02:48:00;;;;;;;3.03;1.50;;;;;;;;;;5081020;28;20090;-73
2022/12/14 02:50:40;;;;;;;2.22;1.23;;;;;;;;;;5081128;28;20023;-73
2022/12/14 02:53:27;;;;;;;2.38;1.02;;;;;;;;;;5081303;28;20016;-74
2022/12/14 02:55:57;;;;;;;2.45;0.80;;;;;;;;;;5082364;28;20027;-74
2022/12/14 02:58:27;;;;;;;0.80;0.63;;;;;;;;;;5082530;28;20016;-73
2022/12/14 03:00:55;;;;;;;1.13;0.75;;;;;;;;;;5082298;28;20048;-74
2022/12/14 03:03:20;;;;;;;1.38;0.70;;;;;;;;;;5081799;28;20043;-73
2022/12/14 03:06:00;;;;;;;0.70;0.60;;;;;;;;;;5082214;28;20235;-73
2022/12/14 03:08:29;;;;;;;1.20;0.60;;;;;;;;;;5082352;28;20036;-73
2022/12/14 03:11:01;;;;;;;1.30;0.70;;;;;;;;;;5082299;28;20368;-71
2022/12/14 03:13:51;;;;;;;1.10;0.60;;;;;;;;;;5080863;28;20020;-73
2022/12/14 03:16:48;;;;;;;0.80;0.40;;;;;;;;;;5082156;28;20134;-73
2022/12/14 03:19:27;;;;;;;1.25;0.65;;;;;;;;;;5078608;28;20048;-72
2022/12/14 03:21:59;;;;;;;2.53;0.60;;;;;;;;;;5081442;28;20325;-74
2022/12/14 03:24:33;;;;;;;0.63;0.60;;;;;;;;;;5080686;28;20031;-72
2022/12/14 03:26:58;;;;;;;1.05;0.73;;;;;;;;;;5081657;28;20044;-72
2022/12/14 03:29:28;;;;;;;0.93;0.65;;;;;;;;;;5080643;28;20056;-72
2022/12/14 03:32:04;;;;;;;1.40;0.70;;;;;;;;;;5081523;28;20031;-71
2022/12/14 03:34:40;;;;;;;1.60;0.80;;;;;;;;;;5081893;28;20078;-72
2022/12/14 03:37:16;;;;;;;1.88;0.65;;;;;;;;;;5081622;28;20051;-71
2022/12/14 03:39:43;;;;;;;0.60;0.55;;;;;;;;;;5080959;28;20067;-72
2022/12/14 03:42:22;;;;;;;1.70;0.80;;;;;;;;;;5080969;28;20020;-71
2022/12/14 03:44:53;;;;;;;0.80;0.70;;;;;;;;;;5080720;28;20040;-70
2022/12/14 03:47:43;;;;;;;1.58;0.80;;;;;;;;;;5081583;28;20221;-71
2022/12/14 03:51:07;;;;;;;1.95;0.90;;;;;;;;;;5081292;28;20316;-72
2022/12/14 03:53:44;;;;;;;1.27;0.75;;;;;;;;;;5019545;28;20137;-73
2022/12/14 03:56:26;;;;;;;2.00;0.82;;;;;;;;;;5072802;28;20104;-72
2022/12/14 03:59:10;;;;;;;1.10;0.82;;;;;;;;;;5080000;28;20194;-73
2022/12/14 04:01:45;;;;;;;5.15;1.13;;;;;;;;;;5081036;28;20044;-71
2022/12/14 04:04:20;;;;;;;2.45;1.05;;;;;;;;;;5080875;28;20032;-73
2022/12/14 04:07:09;;;;;;;1.45;1.00;;;;;;;;;;5080213;28;20024;-74
2022/12/14 04:09:47;;;;;;;2.65;1.10;;;;;;;;;;5078972;28;20027;-74
2022/12/14 04:21:16;;;;;;;3.25;1.10;;;;;;;;;;5080515;28;20070;-72
2022/12/14 04:26:37;;;;;;;1.48;0.90;;;;;;;;;;5079598;28;20327;-73
2022/12/14 04:31:58;;;;;;;2.03;1.10;;;;;;;;;;5079382;28;20705;-73
2022/12/14 04:34:27;;;;;;;1.80;1.00;;;;;;;;;;5079696;28;20033;-71
2022/12/14 04:36:55;;;;;;;3.42;1.10;;;;;;;;;;5080277;28;20102;-72
2022/12/14 04:39:52;;;;;;;1.85;1.20;;;;;;;;;;5083168;28;20086;-73
2022/12/14 04:42:23;;;;;;;1.98;1.20;;;;;;;;;;5084447;28;20036;-72
2022/12/14 04:44:50;;;;;;;;;;;;;;;;;;5085578;28;20044;-72
2022/12/14 04:47:18;;;;;;;2.63;1.20;;;;;;;;;;5084917;28;19971;-72
2022/12/14 04:49:52;;;;;;;2.88;1.23;;;;;;;;;;5084169;28;20029;-73
2022/12/14 04:52:27;;;;;;;2.75;1.38;;;;;;;;;;5083320;28;20092;-73
2022/12/14 04:55:21;;;;;;;3.50;1.20;;;;;;;;;;5084973;28;20028;-73
2022/12/14 04:57:46;;;;;;;2.33;1.30;;;;;;;;;;5062230;28;20044;-73
2022/12/14 05:00:13;;;;;;;2.80;1.30;;;;;;;;;;5084800;28;20035;-72
2022/12/14 05:02:57;;;;;;;2.85;1.30;;;;;;;;;;5084043;28;20036;-73
2022/12/14 05:05:38;;;;;;;2.30;1.30;;;;;;;;;;5083439;28;20070;-73
2022/12/14 05:08:06;;;;;;;2.10;1.40;;;;;;;;;;5082790;28;20216;-72
2022/12/14 05:10:43;;;;;;;2.35;1.48;;;;;;;;;;5083551;28;20035;-73
2022/12/14 05:13:17;;;;;;;3.25;1.65;;;;;;;;;;5082958;28;20031;-73
2022/12/14 05:15:46;;;;;;;2.22;1.50;;;;;;;;;;5083433;28;20040;-72
2022/12/14 05:18:12;;;;;;;3.80;1.50;;;;;;;;;;5083293;28;20032;-73
2022/12/14 05:20:38;;;;;;;3.45;1.58;;;;;;;;;;5083681;28;20028;-73
2022/12/14 05:23:03;;;;;;;1.88;1.30;;;;;;;;;;5083938;28;20032;-73
2022/12/14 05:25:29;;;;;;;3.08;1.50;;;;;;;;;;5083532;28;20081;-73
2022/12/14 05:27:54;;;;;;;3.20;1.63;;;;;;;;;;5083048;28;20081;-73
2022/12/14 05:30:20;;;;;;;2.40;1.60;;;;;;;;;;5082709;28;20036;-73
2022/12/14 05:32:45;;;;;;;2.25;1.40;;;;;;;;;;5082458;28;20028;-72
2022/12/14 05:35:12;;;;;;;4.18;1.40;;;;;;;;;;5084278;28;20029;-73
2022/12/14 05:37:38;;;;;;;3.47;1.35;;;;;;;;;;5083569;28;20453;-72
2022/12/14 05:40:05;;;;;;;2.13;1.35;;;;;;;;;;5083972;28;20032;-72
2022/12/14 05:42:30;;;;;;;3.08;1.48;;;;;;;;;;5083844;28;20028;-73
2022/12/14 05:44:56;;;;;;;2.83;1.40;;;;;;;;;;5083813;28;20025;-73
2022/12/14 05:47:21;;;;;;;2.85;1.60;;;;;;;;;;5079759;28;20376;-72
2022/12/14 05:49:47;;;;;;;2.95;1.77;;;;;;;;;;5083456;28;20031;-72
2022/12/14 05:52:12;;;;;;;2.53;1.45;;;;;;;;;;5084017;28;20028;-73
2022/12/14 05:54:38;;;;;;;2.72;1.63;;;;;;;;;;5082357;28;20362;-73
2022/12/14 05:57:04;;;;;;;2.25;1.48;;;;;;;;;;5083657;28;20097;-73
2022/12/14 05:59:29;;;;;;;4.82;1.88;;;;;;;;;;5080950;28;20028;-73
2022/12/14 06:01:55;;;;;;;3.08;1.80;;;;;;;;;;5082095;28;20352;-72
2022/12/14 06:04:20;;;;;;;4.00;1.48;;;;;;;;;;5083266;28;20031;-74
2022/12/14 06:06:46;;;;;;;2.83;1.80;;;;;;;;;;5083397;28;20058;-73
2022/12/14 06:09:14;;;;;;;3.13;1.75;;;;;;;;;;5083681;28;20044;-73
2022/12/14 06:11:40;;;;;;;3.00;1.58;;;;;;;;;;5083572;28;20025;-73
2022/12/14 06:14:09;;;;;;;3.90;1.70;;;;;;;;;;5082950;28;20096;-73
2022/12/14 06:16:35;;;;;;;3.88;1.70;;;;;;;;;;5083392;28;20320;-73
2022/12/14 06:19:03;;;;;;;4.80;2.00;;;;;;;;;;5083222;28;20051;-73
2022/12/14 06:21:31;;;;;;;5.38;1.90;;;;;;;;;;5083248;28;20032;-72
2022/12/14 06:23:57;;;;;;;3.40;1.90;;;;;;;;;;5082997;28;20024;-73
2022/12/14 06:26:23;;;;;;;4.00;1.92;;;;;;;;;;5083248;28;20255;-73
2022/12/14 06:28:49;;;;;;;5.03;2.00;;;;;;;;;;5082056;28;20090;-73
2022/12/14 06:31:19;;;;;;;3.72;2.30;;;;;;;;;;5082101;28;20099;-72
2022/12/14 06:33:44;;;;;;;4.10;1.93;;;;;;;;;;5081472;28;20029;-73
2022/12/14 06:36:25;;;;;;;4.55;1.95;;;;;;;;;;5080176;28;20298;-72
2022/12/14 06:38:51;;;;;;;;;;;;;;;;;;5081926;28;20422;-72
2022/12/14 06:41:17;;;;;;;3.90;2.10;;;;;;;;;;5081869;28;20196;-72
2022/12/14 06:43:42;;;;;;;4.18;2.10;;;;;;;;;;5082179;28;20199;-73
2022/12/14 06:46:09;;;;;;;4.40;2.50;;;;;;;;;;5081904;28;20481;-73
2022/12/14 06:48:34;;;;;;;4.30;2.20;;;;;;;;;;5080972;28;20020;-72
2022/12/14 06:51:03;;;;;;;5.40;2.22;;;;;;;;;;5080965;28;20265;-72
2022/12/14 06:53:29;;;;;;;7.85;2.20;;;;;;;;;;5081197;28;20056;-72
2022/12/14 06:56:05;;;;;;;6.97;2.80;;;;;;;;;;5081097;28;20035;-72
2022/12/14 06:58:30;;;;;;;4.25;2.40;;;;;;;;;;5081229;28;20066;-72
2022/12/14 07:01:00;;;;;;;5.53;2.67;;;;;;;;;;5081630;28;20099;-73
2022/12/14 07:03:25;;;;;;;5.38;3.20;;;;;;;;;;5081346;28;20036;-72
2022/12/14 07:05:55;;;;;;;8.20;3.85;;;;;;;;;;5082035;28;20055;-72
2022/12/14 07:08:21;;;;;;;9.07;3.27;;;;;;;;;;5081179;28;20048;-72
2022/12/14 07:10:46;;;;;;;6.75;3.40;;;;;;;;;;5081091;28;20594;-72
2022/12/14 07:13:11;;;;;;;7.25;3.47;;;;;;;;;;5081555;28;20017;-72
2022/12/14 07:15:38;;;;;;;5.00;2.83;;;;;;;;;;5081976;28;20373;-72
2022/12/14 07:18:03;;;;;;;5.28;3.20;;;;;;;;;;5082289;28;20050;-72
2022/12/14 07:20:29;;;;;;;5.30;2.80;;;;;;;;;;5081997;28;20024;-72
2022/12/14 07:22:54;;;;;;;5.28;2.80;;;;;;;;;;5082132;28;20028;-72
2022/12/14 07:25:19;;;;;;;6.57;2.85;;;;;;;;;;5081801;28;20032;-73
2022/12/14 07:27:45;;;;;;;7.57;3.60;;;;;;;;;;5081776;28;20036;-72
2022/12/14 07:30:10;;;;;;;6.28;3.60;;;;;;;;;;5081793;28;20447;-71
2022/12/14 07:32:36;;;;;;;6.80;3.97;;;;;;;;;;5080560;28;20035;-71
2022/12/14 07:35:01;;;;;;;5.65;3.20;;;;;;;;;;5081454;28;20024;-71
2022/12/14 07:37:27;;;;;;;5.20;3.20;;;;;;;;;;5081818;28;20155;-72
2022/12/14 07:39:52;;;;;;;5.90;3.17;;;;;;;;;;5081653;28;20020;-72
2022/12/14 07:42:17;;;;;;;4.60;3.10;;;;;;;;;;5081408;28;20028;-72
2022/12/14 07:44:43;;;;;;;5.25;3.22;;;;;;;;;;5080778;28;20028;-73
2022/12/14 07:47:08;;;;;;;7.88;3.42;;;;;;;;;;5081075;28;20051;-73
2022/12/14 07:49:34;;;;;;;5.65;3.20;;;;;;;;;;5080156;28;20104;-73
2022/12/14 07:51:59;;;;;;;5.85;3.30;;;;;;;;;;5081834;28;20028;-73
2022/12/14 07:54:25;;;;;;;5.25;3.25;;;;;;;;;;5080689;28;20017;-73
2022/12/14 07:56:50;;;;;;;10.55;4.05;;;;;;;;;;5080556;28;20027;-73
2022/12/14 07:59:16;;;;;;;8.02;3.90;;;;;;;;;;5079562;28;20032;-73
2022/12/14 08:01:42;;;;;;;9.50;3.80;;;;;;;;;;5080558;28;20084;-73
2022/12/14 08:04:13;;;;;;;7.65;3.70;;;;;;;;;;5080912;28;20096;-73
2022/12/14 08:06:40;;;;;;;9.98;3.58;;;;;;;;;;5080449;28;20106;-73
2022/12/14 08:09:07;;;;;;;7.32;3.70;;;;;;;;;;5080068;28;20043;-73
2022/12/14 08:11:32;;;;;;;9.55;3.83;;;;;;;;;;5080855;28;20025;-73
2022/12/14 08:14:03;;;;;;;8.52;4.05;;;;;;;;;;5079929;28;20095;-73
2022/12/14 08:16:29;;;;;;;8.15;3.63;;;;;;;;;;5080178;28;20043;-75
2022/12/14 08:18:56;;;;;;;7.18;3.47;;;;;;;;;;5081075;28;20033;-76
2022/12/14 08:21:22;;;;;;;7.90;3.90;;;;;;;;;;5080933;28;20216;-71
2022/12/14 08:23:49;;;;;;;7.82;4.00;;;;;;;;;;5081069;28;20085;-74
2022/12/14 08:26:15;;;;;;;11.10;3.85;;;;;;;;;;5080049;28;20059;-73
2022/12/14 08:28:41;;;;;;;10.40;3.80;;;;;;;;;;5078853;28;20024;-74
2022/12/14 08:31:12;;;;;;;9.75;3.70;;;;;;;;;;5081042;28;20024;-73
2022/12/14 08:33:39;;;;;;;11.20;4.32;;;;;;;;;;5080268;28;20021;-75
2022/12/14 08:36:13;;;;;;;6.05;3.10;;;;;;;;;;5080069;28;20032;-78
2022/12/14 08:38:39;;;;;;;7.00;3.40;;;;;;;;;;5079954;28;20028;-76
2022/12/14 08:41:07;;;;;;;7.47;3.42;;;;;;;;;;5080080;28;20028;-75
2022/12/14 08:43:33;;;;;;;12.35;3.70;;;;;;;;;;5079594;28;20028;-74
2022/12/14 08:46:00;;;;;;;9.27;3.33;;;;;;;;;;5081190;28;20027;-76
2022/12/14 08:48:25;;;;;;;6.45;3.42;;;;;;;;;;5081184;28;20320;-76
2022/12/14 08:50:51;;;;;;;5.45;3.20;;;;;;;;;;5080865;28;20031;-76
2022/12/14 08:53:17;;;;;;;7.32;3.47;;;;;;;;;;5081007;28;20025;-73
2022/12/14 08:55:42;;;;;;;9.40;3.95;;;;;;;;;;5080682;28;20020;-73
2022/12/14 08:58:09;;;;;;;10.15;3.95;;;;;;;;;;5080878;28;20024;-73
2022/12/14 09:00:37;;;;;;;6.55;3.22;;;;;;;;;;5080815;28;20431;-73
2022/12/14 09:03:03;;;;;;;7.93;3.65;;;;;;;;;;5080328;28;20016;-73
2022/12/14 09:05:28;;;;;;;8.40;3.80;;;;;;;;;;5070738;28;20101;-73
2022/12/14 09:07:54;;;;;;;8.20;4.13;;;;;;;;;;5071339;28;20056;-75
2022/12/14 09:10:19;;;;;;;9.23;3.60;;;;;;;;;;5076970;28;20032;-74
2022/12/14 09:12:44;;;;;;;6.03;3.38;;;;;;;;;;5074199;28;20033;-74
2022/12/14 09:15:10;;;;;;;6.50;3.33;;;;;;;;;;5073769;28;20033;-76
2022/12/14 09:17:36;;;;;;;8.18;3.67;;;;;;;;;;5071398;28;20032;-73
2022/12/14 09:20:02;;;;;;;5.10;3.50;;;;;;;;;;5070187;28;20515;-73
2022/12/14 09:22:28;;;;;;;7.38;3.90;;;;;;;;;;5069910;28;20032;-73
2022/12/14 09:24:53;;;;;;;7.22;3.63;;;;;;;;;;5079299;28;20028;-72
2022/12/14 09:27:20;;;;;;;12.40;4.28;;;;;;;;;;5082470;28;20111;-73
2022/12/14 09:29:45;;;;;;;9.50;3.92;;;;;;;;;;5080982;28;20021;-73
2022/12/14 09:32:11;;;;;;;8.30;4.00;;;;;;;;;;5082963;28;20043;-73
2022/12/14 09:34:36;;;;;;;7.25;3.53;;;;;;;;;;5080765;28;20028;-73
2022/12/14 09:37:03;;;;;;;12.20;3.85;;;;;;;;;;5080911;28;20049;-73
2022/12/14 09:39:30;;;;;;;6.40;3.72;;;;;;;;;;5081545;28;20024;-73
2022/12/14 09:42:01;;;;;;;7.88;3.65;;;;;;;;;;5080864;28;20032;-73
2022/12/14 09:44:32;;;;;;;6.47;3.40;;;;;;;;;;5081130;28;20308;-72
2022/12/14 09:47:12;;;;;;;13.65;3.95;;;;;;;;;;5077420;28;20492;-72
2022/12/14 09:50:12;;;;;;;6.38;3.70;;;;;;;;;;5076202;28;20036;-73
2022/12/14 09:52:44;;;;;;;11.48;4.43;;;;;;;;;;5048310;28;20048;-73
2022/12/14 09:55:32;;;;;;;6.43;3.35;;;;;;;;;;5082011;28;20041;-72
2022/12/14 09:58:17;;;;;;;10.15;3.72;;;;;;;;;;5082126;28;20024;-72
2022/12/14 10:01:07;;;;;;;9.75;3.88;;;;;;;;;;5080119;28;20237;-72
2022/12/14 10:03:40;;;;;;;16.60;4.32;;;;;;;;;;5072800;28;20216;-72
2022/12/14 10:06:22;;;;;;;9.93;3.90;;;;;;;;;;5077326;28;20028;-71
2022/12/14 10:08:58;;;;;;;11.07;3.72;;;;;;;;;;5081698;28;20020;-72
2022/12/14 10:11:48;;;;;;;14.98;3.80;;;;;;;;;;5077394;28;20029;-71
2022/12/14 10:14:19;;;;;;;10.05;4.10;;;;;;;;;;5079247;28;20028;-72
2022/12/14 10:17:16;;;;;;;8.48;4.25;;;;;;;;;;5079545;28;20036;-71
2022/12/14 10:19:54;;;;;;;8.38;3.92;;;;;;;;;;5081900;28;20244;-70
2022/12/14 10:22:30;;;;;;;10.25;3.97;;;;;;;;;;5081424;28;20055;-71
2022/12/14 10:25:30;;;;;;;7.15;3.90;;;;;;;;;;5080352;28;20435;-74
2022/12/14 10:28:12;;;;;;;6.72;4.05;;;;;;;;;;5014321;28;20076;-74
2022/12/14 10:30:40;;;;;;;10.75;4.22;;;;;;;;;;5075287;28;20036;-75
2022/12/14 10:33:26;;;;;;;7.55;4.32;;;;;;;;;;5081430;28;20029;-74
2022/12/14 10:35:54;;;;;;;8.43;4.82;;;;;;;;;;5080401;28;20121;-75
2022/12/14 10:38:48;;;;;;;7.85;4.70;;;;;;;;;;5073935;28;20473;-74
2022/12/14 10:41:24;;;;;;;9.88;5.20;;;;;;;;;;5078640;28;20042;-73
2022/12/14 10:44:11;;;;;;;9.50;4.72;;;;;;;;;;5082067;28;20025;-74
2022/12/14 10:47:00;;;;;;;9.57;4.38;;;;;;;;;;5082537;28;20024;-74
2022/12/14 10:49:43;;;;;;;8.15;4.72;;;;;;;;;;5082651;28;20279;-73
2022/12/14 10:52:16;;;;;;;9.63;4.60;;;;;;;;;;5082467;28;20035;-73
2022/12/14 10:55:26;;;;;;;9.15;4.82;;;;;;;;;;5080713;28;20103;-73
2022/12/14 10:57:52;;;;;;;12.63;4.70;;;;;;;;;;5019743;28;20041;-74
2022/12/14 11:00:17;;;;;;;7.43;4.30;;;;;;;;;;5019422;28;20161;-74
2022/12/14 11:02:46;;;;;;;9.43;4.30;;;;;;;;;;5050423;28;20067;-73
2022/12/14 11:05:33;;;;;;;9.35;4.65;;;;;;;;;;5075772;28;20036;-73
2022/12/14 11:07:58;;;;;;;7.45;3.95;;;;;;;;;;5070776;28;20032;-73
2022/12/14 11:10:30;;;;;;;7.65;4.20;;;;;;;;;;5069486;28;20029;-74
2022/12/14 11:13:15;;;;;;;7.97;4.03;;;;;;;;;;5070199;28;20055;-74
2022/12/14 11:15:49;;;;;;;8.07;3.15;;;;;;;;;;5050268;28;20146;-73
2022/12/14 11:18:15;;;;;;;6.43;3.58;;;;;;;;;;5048980;28;20059;-73
2022/12/14 11:20:57;;;;;;;5.95;3.47;;;;;;;;;;5059046;28;20218;-74
2022/12/14 11:23:29;;;;;;;6.10;3.28;;;;;;;;;;5050268;28;20036;-73
2022/12/14 11:25:59;;;;;;;5.47;3.05;;;;;;;;;;5050179;28;20120;-73
2022/12/14 11:28:48;;;;;;;5.78;2.50;;;;;;;;;;5053154;28;20036;-74
2022/12/14 11:31:19;;;;;;;5.93;2.90;;;;;;;;;;5058540;28;20075;-74
2022/12/14 11:33:47;;;;;;;6.63;2.80;;;;;;;;;;5051459;28;20029;-74
2022/12/14 11:36:36;;;;;;;4.65;2.40;;;;;;;;;;5054726;28;20036;-72
2022/12/14 11:39:17;;;;;;;7.53;2.80;;;;;;;;;;5061626;28;20041;-72
2022/12/14 11:41:45;;;;;;;9.48;3.17;;;;;;;;;;5057317;28;20344;-73
2022/12/14 11:44:17;;;;;;;7.68;2.90;;;;;;;;;;5059476;28;20040;-73
2022/12/14 11:46:57;;;;;;;5.47;2.67;;;;;;;;;;5059595;28;20078;-73
2022/12/14 11:49:33;;;;;;;5.63;2.85;;;;;;;;;;5050277;28;20440;-73
2022/12/14 11:52:13;;;;;;;5.50;3.08;;;;;;;;;;5057211;28;20032;-73
2022/12/14 11:54:41;;;;;;;5.45;2.85;;;;;;;;;;5059378;28;20032;-73
2022/12/14 11:57:12;;;;;;;5.68;3.30;;;;;;;;;;5060316;28;20059;-73
2022/12/14 11:59:46;;;;;;;8.00;3.42;;;;;;;;;;5059736;28;20036;-72
2022/12/14 12:02:34;;;;;;;5.28;3.30;;;;;;;;;;5049860;28;20029;-77
2022/12/14 12:05:02;;;;;;;6.40;2.75;;;;;;;;;;5051933;28;20025;-71
2022/12/14 12:08:01;;;;;;;4.57;2.90;;;;;;;;;;5049722;28;20029;-76
2022/12/14 12:10:39;;;;;;;10.05;2.95;;;;;;;;;;5026740;28;20098;-74
2022/12/14 12:13:14;;;;;;;5.45;2.70;;;;;;;;;;5051307;28;20312;-76
2022/12/14 12:15:45;;;;;;;8.23;2.58;;;;;;;;;;5049320;28;20021;-73
2022/12/14 12:18:42;;;;;;;4.80;2.50;;;;;;;;;;5052112;28;20036;-76
2022/12/14 12:21:13;;;;;;;5.50;2.90;;;;;;;;;;5061157;28;20324;-74
2022/12/14 12:23:47;;;;;;;13.98;3.28;;;;;;;;;;5059960;28;20044;-71
2022/12/14 12:26:38;;;;;;;8.82;3.50;;;;;;;;;;5060662;28;20082;-72
2022/12/14 12:29:15;;;;;;;5.07;3.10;;;;;;;;;;5056822;28;20388;-74
2022/12/14 12:31:53;;;;;;;4.80;2.58;;;;;;;;;;5060421;28;20029;-73
2022/12/14 12:34:23;;;;;;;6.47;2.90;;;;;;;;;;5056906;28;20036;-72
2022/12/14 12:36:49;;;;;;;6.32;2.35;;;;;;;;;;5052528;28;20091;-73
2022/12/14 12:39:17;;;;;;;5.13;2.08;;;;;;;;;;5079465;28;20419;-71
2022/12/14 12:41:51;;;;;;;5.82;2.00;;;;;;;;;;5079904;28;20204;-73
2022/12/14 12:44:47;;;;;;;4.05;1.90;;;;;;;;;;5079714;28;20283;-73
2022/12/14 12:47:20;;;;;;;4.82;1.90;;;;;;;;;;5081007;28;20028;-73
2022/12/14 12:49:47;;;;;;;5.30;1.77;;;;;;;;;;5075218;28;20618;-73
2022/12/14 12:52:22;;;;;;;4.15;1.75;;;;;;;;;;5073639;28;20037;-73
2022/12/14 12:55:00;;;;;;;6.57;1.90;;;;;;;;;;5069736;28;20484;-73
2022/12/14 12:57:32;;;;;;;9.27;1.90;;;;;;;;;;5079947;28;20021;-73
2022/12/14 12:59:58;;;;;;;8.45;1.90;;;;;;;;;;5075730;28;20031;-74
2022/12/14 13:02:33;;;;;;;7.25;2.38;;;;;;;;;;5079994;28;20459;-73
2022/12/14 13:05:13;;;;;;;11.80;2.40;;;;;;;;;;5075815;28;20709;-74
2022/12/14 13:07:46;;;;;;;6.93;2.20;;;;;;;;;;5077663;28;20039;-74
2022/12/14 13:10:31;;;;;;;8.07;2.00;;;;;;;;;;5077668;28;20024;-73
2022/12/14 13:13:07;;;;;;;7.85;2.13;;;;;;;;;;5065085;28;20232;-73
2022/12/14 13:15:47;;;;;;;10.55;2.22;;;;;;;;;;5076563;28;20450;-73
2022/12/14 13:18:23;;;;;;;6.82;2.10;;;;;;;;;;5081746;28;20024;-73
2022/12/14 13:20:49;;;;;;;10.50;2.10;;;;;;;;;;5082231;28;20040;-72
2022/12/14 13:23:15;;;;;;;10.73;1.80;;;;;;;;;;5078771;28;20138;-73
2022/12/14 13:26:18;;;;;;;9.73;2.60;;;;;;;;;;5073976;28;20052;-73
2022/12/14 13:28:56;;;;;;;8.45;1.75;;;;;;;;;;5070812;28;20028;-73
2022/12/14 13:31:43;;;;;;;7.68;1.77;;;;;;;;;;5075748;28;20041;-74
2022/12/14 13:34:43;;;;;;;12.30;1.80;;;;;;;;;;5076063;28;20169;-76
2022/12/14 13:37:11;;;;;;;8.95;1.92;;;;;;;;;;5076690;28;20044;-74
2022/12/14 13:39:54;;;;;;;6.05;1.60;;;;;;;;;;5075898;28;20032;-74
2022/12/14 13:42:50;;;;;;;8.48;1.90;;;;;;;;;;5070309;28;20027;-75
2022/12/14 13:45:19;;;;;;;9.45;2.05;;;;;;;;;;5075860;28;20032;-74
2022/12/14 13:47:50;;;;;;;7.25;1.75;;;;;;;;;;5082527;28;20028;-74
2022/12/14 13:50:28;;;;;;;10.15;2.20;;;;;;;;;;5080859;28;20047;-75
2022/12/14 13:53:03;;;;;;;8.48;1.92;;;;;;;;;;5079244;28;20051;-74
2022/12/14 13:55:45;;;;;;;7.78;1.90;;;;;;;;;;5080923;28;20193;-74
2022/12/14 13:58:37;;;;;;;9.23;2.00;;;;;;;;;;5081987;28;20220;-73
2022/12/14 14:01:44;;;;;;;8.50;1.90;;;;;;;;;;5060055;28;20108;-75
2022/12/14 14:04:09;;;;;;;7.72;2.10;;;;;;;;;;5046105;28;20048;-75
2022/12/14 14:06:42;;;;;;;6.72;1.50;;;;;;;;;;5061434;28;20029;-75
2022/12/14 14:09:28;;;;;;;5.18;1.60;;;;;;;;;;5075317;28;20032;-74
2022/12/14 14:12:23;;;;;;;4.80;1.80;;;;;;;;;;5066191;28;20041;-74
2022/12/14 14:14:54;;;;;;;9.88;1.90;;;;;;;;;;5078067;28;20025;-74
2022/12/14 14:17:34;;;;;;;13.00;2.67;;;;;;;;;;5080107;28;20029;-74
2022/12/14 14:20:23;;;;;;;6.75;1.88;;;;;;;;;;5082245;28;20324;-75
2022/12/14 14:23:14;;;;;;;9.90;1.70;;;;;;;;;;5078574;28;20359;-76
2022/12/14 14:25:47;;;;;;;9.55;1.73;;;;;;;;;;5078574;28;20052;-75
2022/12/14 14:28:15;;;;;;;11.70;1.60;;;;;;;;;;5080032;28;20031;-74
2022/12/14 14:30:42;;;;;;;8.20;1.63;;;;;;;;;;5078750;28;20036;-75
2022/12/14 14:33:40;;;;;;;7.65;1.63;;;;;;;;;;5072525;28;20028;-74
2022/12/14 14:36:32;;;;;;;10.15;2.15;;;;;;;;;;5054389;28;20063;-75
2022/12/14 14:39:03;;;;;;;9.00;2.25;;;;;;;;;;5077545;28;20324;-75
2022/12/14 14:41:37;;;;;;;8.82;2.22;;;;;;;;;;5075796;28;20048;-72
2022/12/14 14:44:06;;;;;;;10.10;1.92;;;;;;;;;;5075574;28;20020;-73
2022/12/14 14:46:39;;;;;;;6.47;1.90;;;;;;;;;;5071284;28;20021;-73
2022/12/14 14:49:17;;;;;;;8.80;2.10;;;;;;;;;;5072364;28;20082;-74
2022/12/14 14:51:42;;;;;;;8.18;1.67;;;;;;;;;;5070722;28;20108;-74
2022/12/14 14:54:17;;;;;;;5.82;1.80;;;;;;;;;;5073731;28;20451;-74
2022/12/14 14:56:43;;;;;;;8.45;2.13;;;;;;;;;;5069909;28;20021;-75
2022/12/14 14:59:17;;;;;;;9.30;1.98;;;;;;;;;;5071961;28;20028;-74
2022/12/14 15:01:59;;;;;;;11.43;2.60;;;;;;;;;;5070687;28;20081;-73
2022/12/14 15:04:35;;;;;;;10.73;2.40;;;;;;;;;;5072914;28;20039;-74
2022/12/14 15:07:04;;;;;;;7.40;1.98;;;;;;;;;;5070650;28;20024;-74
2022/12/14 15:09:32;;;;;;;10.90;2.35;;;;;;;;;;5071689;28;20039;-73
2022/12/14 15:12:22;;;;;;;8.77;2.05;;;;;;;;;;5070084;28;20063;-73
2022/12/14 15:14:53;;;;;;;9.15;2.15;;;;;;;;;;5073213;28;20067;-73
2022/12/14 15:17:19;;;;;;;;;;;;;;;;;;5072308;28;20087;-74
2022/12/14 15:20:08;;;;;;;5.82;1.50;;;;;;;;;;5076344;28;20387;-74
2022/12/14 15:22:41;;;;;;;5.85;1.70;;;;;;;;;;5074717;28;20056;-76
2022/12/14 15:25:17;;;;;;;9.80;2.05;;;;;;;;;;5074553;28;20040;-80
2022/12/14 15:27:43;;;;;;;6.32;1.80;;;;;;;;;;5079303;28;20036;-75
2022/12/14 15:30:11;;;;;;;5.25;1.80;;;;;;;;;;5079008;28;20020;-77
2022/12/14 15:32:39;;;;;;;7.85;2.10;;;;;;;;;;5080926;28;20354;-76